sensor_id;sensor_type;location;lat;lon;timestamp;temperature;humidity
19803;DHT22;66074;50.764;6.090;2024-02-15T00:01:41;13.20;99.90
19803;DHT22;66074;50.764;6.090;2024-02-15T00:04:07;13.20;99.90
19803;DHT22;66074;50.764;6.090;2024-02-15T00:06:32;13.20;99.90
19803;DHT22;66074;50.764;6.090;2024-02-15T00:08:58;13.20;99.90
19803;DHT22;66074;50.764;6.090;2024-02-15T00:11:23;13.30;99.90
19803;DHT22;66074;50.764;6.090;2024-02-15T00:13:49;13.20;99.90
19803;DHT22;66074;50.764;6.090;2024-02-15T00:16:15;13.20;99.90
19803;DHT22;66074;50.764;6.090;2024-02-15T00:18:40;13.20;99.90
19803;DHT22;66074;50.764;6.090;2024-02-15T00:21:06;13.20;99.90
19803;DHT22;66074;50.764;6.090;2024-02-15T00:23:32;13.20;99.90
19803;DHT22;66074;50.764;6.090;2024-02-15T00:26:01;13.20;99.90
19803;DHT22;66074;50.764;6.090;2024-02-15T00:28:26;13.20;99.90
19803;DHT22;66074;50.764;6.090;2024-02-15T00:30:52;13.20;99.90
19803;DHT22;66074;50.764;6.090;2024-02-15T00:33:18;13.20;99.90
19803;DHT22;66074;50.764;6.090;2024-02-15T00:35:43;13.20;99.90
19803;DHT22;66074;50.764;6.090;2024-02-15T00:38:09;13.20;99.90
19803;DHT22;66074;50.764;6.090;2024-02-15T00:40:35;13.20;99.90
19803;DHT22;66074;50.764;6.090;2024-02-15T00:43:00;13.20;99.90
19803;DHT22;66074;50.764;6.090;2024-02-15T00:45:26;13.20;99.90
19803;DHT22;66074;50.764;6.090;2024-02-15T00:47:51;13.30;99.90
19803;DHT22;66074;50.764;6.090;2024-02-15T00:50:17;13.30;99.90
19803;DHT22;66074;50.764;6.090;2024-02-15T00:52:46;13.30;99.90
19803;DHT22;66074;50.764;6.090;2024-02-15T00:55:12;13.30;99.90
19803;DHT22;66074;50.764;6.090;2024-02-15T00:57:37;13.30;99.90
19803;DHT22;66074;50.764;6.090;2024-02-15T01:00:05;13.40;99.90
19803;DHT22;66074;50.764;6.090;2024-02-15T01:02:31;13.30;99.90
19803;DHT22;66074;50.764;6.090;2024-02-15T01:04:57;13.30;99.90
19803;DHT22;66074;50.764;6.090;2024-02-15T01:07:24;13.30;99.90
19803;DHT22;66074;50.764;6.090;2024-02-15T01:09:53;13.40;99.90
19803;DHT22;66074;50.764;6.090;2024-02-15T01:12:19;13.30;99.90
19803;DHT22;66074;50.764;6.090;2024-02-15T01:14:46;13.30;99.90
19803;DHT22;66074;50.764;6.090;2024-02-15T01:17:12;13.40;99.90
19803;DHT22;66074;50.764;6.090;2024-02-15T01:19:37;13.30;99.90
19803;DHT22;66074;50.764;6.090;2024-02-15T01:22:03;13.30;99.90
19803;DHT22;66074;50.764;6.090;2024-02-15T01:24:29;13.40;99.90
19803;DHT22;66074;50.764;6.090;2024-02-15T01:26:55;13.40;99.90
19803;DHT22;66074;50.764;6.090;2024-02-15T01:29:21;13.40;99.90
19803;DHT22;66074;50.764;6.090;2024-02-15T01:31:46;13.40;99.90
19803;DHT22;66074;50.764;6.090;2024-02-15T01:34:12;13.40;99.90
19803;DHT22;66074;50.764;6.090;2024-02-15T01:36:38;13.40;99.90
19803;DHT22;66074;50.764;6.090;2024-02-15T01:39:04;13.40;99.90
19803;DHT22;66074;50.764;6.090;2024-02-15T01:41:29;13.40;99.90
19803;DHT22;66074;50.764;6.090;2024-02-15T01:43:55;13.40;99.90
19803;DHT22;66074;50.764;6.090;2024-02-15T01:46:21;13.50;99.90
19803;DHT22;66074;50.764;6.090;2024-02-15T01:48:47;13.50;99.90
19803;DHT22;66074;50.764;6.090;2024-02-15T01:51:13;13.40;99.90
19803;DHT22;66074;50.764;6.090;2024-02-15T01:53:42;13.40;99.90
19803;DHT22;66074;50.764;6.090;2024-02-15T01:56:08;13.40;99.90
19803;DHT22;66074;50.764;6.090;2024-02-15T01:58:34;13.50;99.90
19803;DHT22;66074;50.764;6.090;2024-02-15T02:01:00;13.40;99.90
19803;DHT22;66074;50.764;6.090;2024-02-15T02:03:26;13.50;99.90
19803;DHT22;66074;50.764;6.090;2024-02-15T02:05:52;13.50;99.90
19803;DHT22;66074;50.764;6.090;2024-02-15T02:08:18;13.50;99.90
19803;DHT22;66074;50.764;6.090;2024-02-15T02:10:44;13.50;99.90
19803;DHT22;66074;50.764;6.090;2024-02-15T02:13:11;13.50;99.90
19803;DHT22;66074;50.764;6.090;2024-02-15T02:15:37;13.50;99.90
19803;DHT22;66074;50.764;6.090;2024-02-15T02:18:03;13.50;99.90
19803;DHT22;66074;50.764;6.090;2024-02-15T02:20:31;13.50;99.90
19803;DHT22;66074;50.764;6.090;2024-02-15T02:23:06;13.50;99.90
19803;DHT22;66074;50.764;6.090;2024-02-15T02:25:32;13.50;99.90
19803;DHT22;66074;50.764;6.090;2024-02-15T02:27:59;13.50;99.90
19803;DHT22;66074;50.764;6.090;2024-02-15T02:30:25;13.50;99.90
19803;DHT22;66074;50.764;6.090;2024-02-15T02:32:55;13.50;99.90
19803;DHT22;66074;50.764;6.090;2024-02-15T02:35:22;13.50;99.90
19803;DHT22;66074;50.764;6.090;2024-02-15T02:37:48;13.60;99.90
19803;DHT22;66074;50.764;6.090;2024-02-15T02:40:15;13.50;99.90
19803;DHT22;66074;50.764;6.090;2024-02-15T02:42:49;13.60;99.90
19803;DHT22;66074;50.764;6.090;2024-02-15T02:45:16;13.50;99.90
19803;DHT22;66074;50.764;6.090;2024-02-15T02:47:44;13.50;99.90
19803;DHT22;66074;50.764;6.090;2024-02-15T02:50:10;13.50;99.90
19803;DHT22;66074;50.764;6.090;2024-02-15T02:52:35;13.50;99.90
19803;DHT22;66074;50.764;6.090;2024-02-15T02:55:04;13.50;99.90
19803;DHT22;66074;50.764;6.090;2024-02-15T02:57:34;13.50;99.90
19803;DHT22;66074;50.764;6.090;2024-02-15T03:00:02;13.50;99.90
19803;DHT22;66074;50.764;6.090;2024-02-15T03:02:36;13.40;99.90
19803;DHT22;66074;50.764;6.090;2024-02-15T03:05:06;13.40;99.90
19803;DHT22;66074;50.764;6.090;2024-02-15T03:07:34;13.40;99.90
19803;DHT22;66074;50.764;6.090;2024-02-15T03:10:06;13.30;99.90
19803;DHT22;66074;50.764;6.090;2024-02-15T03:12:38;13.30;99.90
19803;DHT22;66074;50.764;6.090;2024-02-15T03:15:05;13.30;99.90
19803;DHT22;66074;50.764;6.090;2024-02-15T03:17:46;13.30;99.90
19803;DHT22;66074;50.764;6.090;2024-02-15T03:20:12;13.20;99.90
19803;DHT22;66074;50.764;6.090;2024-02-15T03:22:56;13.20;99.90
19803;DHT22;66074;50.764;6.090;2024-02-15T03:25:24;13.20;99.90
19803;DHT22;66074;50.764;6.090;2024-02-15T03:27:53;13.20;99.90
19803;DHT22;66074;50.764;6.090;2024-02-15T03:30:20;13.20;99.90
19803;DHT22;66074;50.764;6.090;2024-02-15T03:32:46;13.20;99.90
19803;DHT22;66074;50.764;6.090;2024-02-15T03:35:15;13.20;99.90
19803;DHT22;66074;50.764;6.090;2024-02-15T03:37:40;13.10;99.90
19803;DHT22;66074;50.764;6.090;2024-02-15T03:40:08;13.10;99.90
19803;DHT22;66074;50.764;6.090;2024-02-15T03:42:34;13.10;99.90
19803;DHT22;66074;50.764;6.090;2024-02-15T03:45:05;13.10;99.90
19803;DHT22;66074;50.764;6.090;2024-02-15T03:47:35;13.10;99.90
19803;DHT22;66074;50.764;6.090;2024-02-15T03:50:04;13.10;99.90
19803;DHT22;66074;50.764;6.090;2024-02-15T03:52:30;13.10;99.90
19803;DHT22;66074;50.764;6.090;2024-02-15T03:54:57;13.10;99.90
19803;DHT22;66074;50.764;6.090;2024-02-15T03:57:23;13.10;99.90
19803;DHT22;66074;50.764;6.090;2024-02-15T03:59:49;13.10;99.90
19803;DHT22;66074;50.764;6.090;2024-02-15T04:02:23;13.10;99.90
19803;DHT22;66074;50.764;6.090;2024-02-15T04:04:52;13.10;99.90
19803;DHT22;66074;50.764;6.090;2024-02-15T04:07:20;13.10;99.90
19803;DHT22;66074;50.764;6.090;2024-02-15T04:09:47;13.10;99.90
19803;DHT22;66074;50.764;6.090;2024-02-15T04:12:12;13.10;99.90
19803;DHT22;66074;50.764;6.090;2024-02-15T04:14:40;13.10;99.90
19803;DHT22;66074;50.764;6.090;2024-02-15T04:17:06;13.10;99.90
19803;DHT22;66074;50.764;6.090;2024-02-15T04:19:32;13.10;99.90
19803;DHT22;66074;50.764;6.090;2024-02-15T04:21:58;13.20;99.90
19803;DHT22;66074;50.764;6.090;2024-02-15T04:24:26;13.10;99.90
19803;DHT22;66074;50.764;6.090;2024-02-15T04:26:51;13.10;99.90
19803;DHT22;66074;50.764;6.090;2024-02-15T04:29:17;13.10;99.90
19803;DHT22;66074;50.764;6.090;2024-02-15T04:31:48;13.10;99.90
19803;DHT22;66074;50.764;6.090;2024-02-15T04:34:15;13.20;99.90
19803;DHT22;66074;50.764;6.090;2024-02-15T04:36:43;13.10;99.90
19803;DHT22;66074;50.764;6.090;2024-02-15T04:39:10;13.10;99.90
19803;DHT22;66074;50.764;6.090;2024-02-15T04:41:39;13.20;99.90
19803;DHT22;66074;50.764;6.090;2024-02-15T04:44:05;13.20;99.90
19803;DHT22;66074;50.764;6.090;2024-02-15T04:46:33;13.20;99.90
19803;DHT22;66074;50.764;6.090;2024-02-15T04:49:00;13.20;99.90
19803;DHT22;66074;50.764;6.090;2024-02-15T04:51:27;13.20;99.90
19803;DHT22;66074;50.764;6.090;2024-02-15T04:53:54;13.30;99.90
19803;DHT22;66074;50.764;6.090;2024-02-15T04:56:20;13.30;99.90
19803;DHT22;66074;50.764;6.090;2024-02-15T04:58:46;13.20;99.90
19803;DHT22;66074;50.764;6.090;2024-02-15T05:01:16;13.40;99.90
19803;DHT22;66074;50.764;6.090;2024-02-15T05:03:45;13.40;99.90
19803;DHT22;66074;50.764;6.090;2024-02-15T05:06:11;13.40;99.90
19803;DHT22;66074;50.764;6.090;2024-02-15T05:08:41;13.40;99.90
19803;DHT22;66074;50.764;6.090;2024-02-15T05:11:10;13.40;99.90
19803;DHT22;66074;50.764;6.090;2024-02-15T05:13:46;13.40;99.90
19803;DHT22;66074;50.764;6.090;2024-02-15T05:16:14;13.40;99.90
19803;DHT22;66074;50.764;6.090;2024-02-15T05:18:41;13.40;99.90
19803;DHT22;66074;50.764;6.090;2024-02-15T05:21:07;13.40;99.90
19803;DHT22;66074;50.764;6.090;2024-02-15T05:23:35;13.40;99.90
19803;DHT22;66074;50.764;6.090;2024-02-15T05:26:02;13.40;99.90
19803;DHT22;66074;50.764;6.090;2024-02-15T05:28:29;13.40;99.90
19803;DHT22;66074;50.764;6.090;2024-02-15T05:31:19;13.50;99.90
19803;DHT22;66074;50.764;6.090;2024-02-15T05:33:49;13.40;99.90
19803;DHT22;66074;50.764;6.090;2024-02-15T05:36:16;13.50;99.90
19803;DHT22;66074;50.764;6.090;2024-02-15T05:38:50;13.50;99.90
19803;DHT22;66074;50.764;6.090;2024-02-15T05:41:15;13.50;99.90
19803;DHT22;66074;50.764;6.090;2024-02-15T05:43:42;13.50;99.90
19803;DHT22;66074;50.764;6.090;2024-02-15T05:46:08;13.50;99.90
19803;DHT22;66074;50.764;6.090;2024-02-15T05:48:35;13.50;99.90
19803;DHT22;66074;50.764;6.090;2024-02-15T05:51:02;13.50;99.90
19803;DHT22;66074;50.764;6.090;2024-02-15T05:53:28;13.50;99.90
19803;DHT22;66074;50.764;6.090;2024-02-15T05:55:55;13.50;99.90
19803;DHT22;66074;50.764;6.090;2024-02-15T05:58:23;13.50;99.90
19803;DHT22;66074;50.764;6.090;2024-02-15T06:00:49;13.50;99.90
19803;DHT22;66074;50.764;6.090;2024-02-15T06:03:19;13.50;99.90
19803;DHT22;66074;50.764;6.090;2024-02-15T06:05:48;13.60;99.90
19803;DHT22;66074;50.764;6.090;2024-02-15T06:08:14;13.50;99.90
19803;DHT22;66074;50.764;6.090;2024-02-15T06:10:39;13.50;99.90
19803;DHT22;66074;50.764;6.090;2024-02-15T06:13:06;13.50;99.90
19803;DHT22;66074;50.764;6.090;2024-02-15T06:15:35;13.50;99.90
19803;DHT22;66074;50.764;6.090;2024-02-15T06:18:01;13.60;99.90
19803;DHT22;66074;50.764;6.090;2024-02-15T06:20:29;13.50;99.90
19803;DHT22;66074;50.764;6.090;2024-02-15T06:22:56;13.50;99.90
19803;DHT22;66074;50.764;6.090;2024-02-15T06:25:22;13.60;99.90
19803;DHT22;66074;50.764;6.090;2024-02-15T06:27:48;13.60;99.90
19803;DHT22;66074;50.764;6.090;2024-02-15T06:30:16;13.60;99.90
19803;DHT22;66074;50.764;6.090;2024-02-15T06:33:00;13.50;99.90
19803;DHT22;66074;50.764;6.090;2024-02-15T06:35:44;13.50;99.90
19803;DHT22;66074;50.764;6.090;2024-02-15T06:38:28;13.50;99.90
19803;DHT22;66074;50.764;6.090;2024-02-15T06:41:13;13.60;99.90
19803;DHT22;66074;50.764;6.090;2024-02-15T06:43:39;13.60;99.90
19803;DHT22;66074;50.764;6.090;2024-02-15T06:46:07;13.50;99.90
19803;DHT22;66074;50.764;6.090;2024-02-15T06:48:33;13.60;99.90
19803;DHT22;66074;50.764;6.090;2024-02-15T06:50:59;13.60;99.90
19803;DHT22;66074;50.764;6.090;2024-02-15T06:53:25;13.60;99.90
19803;DHT22;66074;50.764;6.090;2024-02-15T06:55:50;13.60;99.90
19803;DHT22;66074;50.764;6.090;2024-02-15T06:58:17;13.60;99.90
19803;DHT22;66074;50.764;6.090;2024-02-15T07:00:43;13.60;99.90
19803;DHT22;66074;50.764;6.090;2024-02-15T07:03:09;13.60;99.90
19803;DHT22;66074;50.764;6.090;2024-02-15T07:05:36;13.60;99.90
19803;DHT22;66074;50.764;6.090;2024-02-15T07:08:04;13.60;99.90
19803;DHT22;66074;50.764;6.090;2024-02-15T07:10:30;13.60;99.90
19803;DHT22;66074;50.764;6.090;2024-02-15T07:12:57;13.60;99.90
19803;DHT22;66074;50.764;6.090;2024-02-15T07:15:22;13.70;99.90
19803;DHT22;66074;50.764;6.090;2024-02-15T07:17:48;13.60;99.90
19803;DHT22;66074;50.764;6.090;2024-02-15T07:20:14;13.60;99.90
19803;DHT22;66074;50.764;6.090;2024-02-15T07:22:45;13.70;99.90
19803;DHT22;66074;50.764;6.090;2024-02-15T07:25:11;13.70;99.90
19803;DHT22;66074;50.764;6.090;2024-02-15T07:27:37;13.70;99.90
19803;DHT22;66074;50.764;6.090;2024-02-15T07:30:03;13.70;99.90
19803;DHT22;66074;50.764;6.090;2024-02-15T07:32:31;13.70;99.90
19803;DHT22;66074;50.764;6.090;2024-02-15T07:34:57;13.70;99.90
19803;DHT22;66074;50.764;6.090;2024-02-15T07:37:23;13.70;99.90
19803;DHT22;66074;50.764;6.090;2024-02-15T07:39:52;13.70;99.90
19803;DHT22;66074;50.764;6.090;2024-02-15T07:42:17;13.80;99.90
19803;DHT22;66074;50.764;6.090;2024-02-15T07:44:43;13.80;99.90
19803;DHT22;66074;50.764;6.090;2024-02-15T07:47:09;13.80;99.90
19803;DHT22;66074;50.764;6.090;2024-02-15T07:49:36;13.80;99.90
19803;DHT22;66074;50.764;6.090;2024-02-15T07:52:02;13.90;99.90
19803;DHT22;66074;50.764;6.090;2024-02-15T07:54:30;13.80;99.90
19803;DHT22;66074;50.764;6.090;2024-02-15T07:56:56;13.90;99.90
19803;DHT22;66074;50.764;6.090;2024-02-15T07:59:23;13.90;99.90
19803;DHT22;66074;50.764;6.090;2024-02-15T08:01:49;13.90;99.90
19803;DHT22;66074;50.764;6.090;2024-02-15T08:04:19;14.00;99.90
19803;DHT22;66074;50.764;6.090;2024-02-15T08:06:46;14.00;99.90
19803;DHT22;66074;50.764;6.090;2024-02-15T08:09:16;14.00;99.90
19803;DHT22;66074;50.764;6.090;2024-02-15T08:11:43;14.10;99.90
19803;DHT22;66074;50.764;6.090;2024-02-15T08:14:09;14.10;99.90
19803;DHT22;66074;50.764;6.090;2024-02-15T08:16:36;14.10;99.90
19803;DHT22;66074;50.764;6.090;2024-02-15T08:19:03;14.10;99.90
19803;DHT22;66074;50.764;6.090;2024-02-15T08:21:32;14.10;99.90
19803;DHT22;66074;50.764;6.090;2024-02-15T08:24:04;14.20;99.90
19803;DHT22;66074;50.764;6.090;2024-02-15T08:26:39;14.20;99.90
19803;DHT22;66074;50.764;6.090;2024-02-15T08:29:05;14.20;99.90
19803;DHT22;66074;50.764;6.090;2024-02-15T08:31:35;14.30;99.90
19803;DHT22;66074;50.764;6.090;2024-02-15T08:34:04;14.30;99.90
19803;DHT22;66074;50.764;6.090;2024-02-15T08:36:35;14.30;99.90
19803;DHT22;66074;50.764;6.090;2024-02-15T08:39:01;14.30;99.90
19803;DHT22;66074;50.764;6.090;2024-02-15T08:41:27;14.40;99.90
19803;DHT22;66074;50.764;6.090;2024-02-15T08:43:53;14.40;99.90
19803;DHT22;66074;50.764;6.090;2024-02-15T08:46:19;14.50;99.90
19803;DHT22;66074;50.764;6.090;2024-02-15T08:48:47;14.50;99.90
19803;DHT22;66074;50.764;6.090;2024-02-15T08:51:13;14.50;99.90
19803;DHT22;66074;50.764;6.090;2024-02-15T08:53:39;14.60;99.90
19803;DHT22;66074;50.764;6.090;2024-02-15T08:56:05;14.60;99.90
19803;DHT22;66074;50.764;6.090;2024-02-15T08:58:31;14.60;99.90
19803;DHT22;66074;50.764;6.090;2024-02-15T09:00:58;14.60;99.90
19803;DHT22;66074;50.764;6.090;2024-02-15T09:03:23;14.70;99.90
19803;DHT22;66074;50.764;6.090;2024-02-15T09:05:49;14.80;99.90
19803;DHT22;66074;50.764;6.090;2024-02-15T09:08:15;14.90;99.90
19803;DHT22;66074;50.764;6.090;2024-02-15T09:10:49;14.90;99.90
19803;DHT22;66074;50.764;6.090;2024-02-15T09:13:15;14.90;99.90
19803;DHT22;66074;50.764;6.090;2024-02-15T09:15:41;14.90;99.90
19803;DHT22;66074;50.764;6.090;2024-02-15T09:18:07;15.00;99.90
19803;DHT22;66074;50.764;6.090;2024-02-15T09:20:35;14.90;99.90
19803;DHT22;66074;50.764;6.090;2024-02-15T09:23:03;15.00;99.90
19803;DHT22;66074;50.764;6.090;2024-02-15T09:25:37;15.10;99.90
19803;DHT22;66074;50.764;6.090;2024-02-15T09:28:03;15.10;99.90
19803;DHT22;66074;50.764;6.090;2024-02-15T09:30:28;15.10;99.90
19803;DHT22;66074;50.764;6.090;2024-02-15T09:32:56;15.20;99.90
19803;DHT22;66074;50.764;6.090;2024-02-15T09:35:22;15.20;99.90
19803;DHT22;66074;50.764;6.090;2024-02-15T09:37:48;15.20;99.90
19803;DHT22;66074;50.764;6.090;2024-02-15T09:40:15;15.20;99.90
19803;DHT22;66074;50.764;6.090;2024-02-15T09:42:43;15.30;99.90
19803;DHT22;66074;50.764;6.090;2024-02-15T09:45:11;15.30;99.90
19803;DHT22;66074;50.764;6.090;2024-02-15T09:47:44;15.30;99.90
19803;DHT22;66074;50.764;6.090;2024-02-15T09:50:11;15.30;99.90
19803;DHT22;66074;50.764;6.090;2024-02-15T09:52:40;15.40;99.90
19803;DHT22;66074;50.764;6.090;2024-02-15T09:55:07;15.40;99.90
19803;DHT22;66074;50.764;6.090;2024-02-15T09:57:42;15.40;99.90
19803;DHT22;66074;50.764;6.090;2024-02-15T10:00:09;15.50;99.90
19803;DHT22;66074;50.764;6.090;2024-02-15T10:02:40;15.50;99.90
19803;DHT22;66074;50.764;6.090;2024-02-15T10:05:07;15.50;99.90
19803;DHT22;66074;50.764;6.090;2024-02-15T10:07:40;15.50;99.90
19803;DHT22;66074;50.764;6.090;2024-02-15T10:12:42;15.50;99.90
19803;DHT22;66074;50.764;6.090;2024-02-15T10:15:09;15.50;99.90
19803;DHT22;66074;50.764;6.090;2024-02-15T10:17:35;15.60;99.90
19803;DHT22;66074;50.764;6.090;2024-02-15T10:20:05;15.60;99.90
19803;DHT22;66074;50.764;6.090;2024-02-15T10:22:31;15.60;99.90
19803;DHT22;66074;50.764;6.090;2024-02-15T10:25:13;15.60;99.90
19803;DHT22;66074;50.764;6.090;2024-02-15T10:27:42;15.60;99.90
19803;DHT22;66074;50.764;6.090;2024-02-15T10:30:18;15.60;99.90
19803;DHT22;66074;50.764;6.090;2024-02-15T10:32:44;15.70;99.90
19803;DHT22;66074;50.764;6.090;2024-02-15T10:35:10;15.60;99.90
19803;DHT22;66074;50.764;6.090;2024-02-15T10:37:43;15.70;99.90
19803;DHT22;66074;50.764;6.090;2024-02-15T10:40:09;15.70;99.90
19803;DHT22;66074;50.764;6.090;2024-02-15T10:42:40;15.70;99.90
19803;DHT22;66074;50.764;6.090;2024-02-15T10:45:08;15.70;99.90
19803;DHT22;66074;50.764;6.090;2024-02-15T10:47:37;15.80;99.90
19803;DHT22;66074;50.764;6.090;2024-02-15T10:50:04;15.80;99.90
19803;DHT22;66074;50.764;6.090;2024-02-15T10:52:32;15.80;99.90
19803;DHT22;66074;50.764;6.090;2024-02-15T10:55:04;15.80;99.90
19803;DHT22;66074;50.764;6.090;2024-02-15T10:57:37;15.90;99.90
19803;DHT22;66074;50.764;6.090;2024-02-15T11:00:06;15.90;99.70
19803;DHT22;66074;50.764;6.090;2024-02-15T11:02:46;15.90;99.90
19803;DHT22;66074;50.764;6.090;2024-02-15T11:05:14;16.00;99.90
19803;DHT22;66074;50.764;6.090;2024-02-15T11:07:46;16.00;99.90
19803;DHT22;66074;50.764;6.090;2024-02-15T11:10:11;16.00;99.90
19803;DHT22;66074;50.764;6.090;2024-02-15T11:12:42;16.10;99.80
19803;DHT22;66074;50.764;6.090;2024-02-15T11:15:09;16.10;99.90
19803;DHT22;66074;50.764;6.090;2024-02-15T11:23:04;16.20;99.40
19803;DHT22;66074;50.764;6.090;2024-02-15T11:25:37;16.20;99.60
19803;DHT22;66074;50.764;6.090;2024-02-15T11:30:53;16.30;99.80
19803;DHT22;66074;50.764;6.090;2024-02-15T11:33:35;16.40;99.70
19803;DHT22;66074;50.764;6.090;2024-02-15T11:38:36;16.40;99.20
19803;DHT22;66074;50.764;6.090;2024-02-15T11:41:05;16.40;99.30
19803;DHT22;66074;50.764;6.090;2024-02-15T11:46:11;16.50;99.10
19803;DHT22;66074;50.764;6.090;2024-02-15T11:48:38;16.50;99.10
19803;DHT22;66074;50.764;6.090;2024-02-15T11:51:07;16.50;99.00
19803;DHT22;66074;50.764;6.090;2024-02-15T11:53:39;16.50;99.10
19803;DHT22;66074;50.764;6.090;2024-02-15T11:56:05;16.60;99.00
19803;DHT22;66074;50.764;6.090;2024-02-15T11:58:31;16.60;98.90
19803;DHT22;66074;50.764;6.090;2024-02-15T12:01:17;16.60;98.60
19803;DHT22;66074;50.764;6.090;2024-02-15T12:04:02;16.60;98.80
19803;DHT22;66074;50.764;6.090;2024-02-15T12:06:46;16.60;98.20
19803;DHT22;66074;50.764;6.090;2024-02-15T12:09:30;16.70;98.40
19803;DHT22;66074;50.764;6.090;2024-02-15T12:12:14;16.70;98.50
19803;DHT22;66074;50.764;6.090;2024-02-15T12:15:02;16.70;98.60
19803;DHT22;66074;50.764;6.090;2024-02-15T12:17:46;16.70;98.40
19803;DHT22;66074;50.764;6.090;2024-02-15T12:20:30;16.80;98.50
19803;DHT22;66074;50.764;6.090;2024-02-15T12:22:58;16.70;98.40
19803;DHT22;66074;50.764;6.090;2024-02-15T12:25:26;16.90;98.70
19803;DHT22;66074;50.764;6.090;2024-02-15T12:27:56;16.90;98.30
19803;DHT22;66074;50.764;6.090;2024-02-15T12:30:22;17.00;98.20
19803;DHT22;66074;50.764;6.090;2024-02-15T12:32:51;17.00;98.30
19803;DHT22;66074;50.764;6.090;2024-02-15T12:35:20;17.00;97.80
19803;DHT22;66074;50.764;6.090;2024-02-15T12:37:47;17.10;98.10
19803;DHT22;66074;50.764;6.090;2024-02-15T12:40:20;17.20;98.20
19803;DHT22;66074;50.764;6.090;2024-02-15T12:42:47;17.10;97.60
19803;DHT22;66074;50.764;6.090;2024-02-15T12:45:20;17.10;97.70
19803;DHT22;66074;50.764;6.090;2024-02-15T12:47:52;17.10;97.90
19803;DHT22;66074;50.764;6.090;2024-02-15T12:50:20;17.20;97.60
19803;DHT22;66074;50.764;6.090;2024-02-15T12:52:47;17.20;97.90
19803;DHT22;66074;50.764;6.090;2024-02-15T12:57:53;17.20;97.30
19803;DHT22;66074;50.764;6.090;2024-02-15T13:00:25;17.20;97.70
19803;DHT22;66074;50.764;6.090;2024-02-15T13:02:55;17.20;97.70
19803;DHT22;66074;50.764;6.090;2024-02-15T13:05:21;17.20;97.60
19803;DHT22;66074;50.764;6.090;2024-02-15T13:07:51;17.20;97.80
19803;DHT22;66074;50.764;6.090;2024-02-15T13:10:17;17.10;97.70
19803;DHT22;66074;50.764;6.090;2024-02-15T13:12:44;17.10;97.60
19803;DHT22;66074;50.764;6.090;2024-02-15T13:15:11;17.10;97.50
19803;DHT22;66074;50.764;6.090;2024-02-15T13:17:43;17.10;97.20
19803;DHT22;66074;50.764;6.090;2024-02-15T13:20:10;17.10;97.50
19803;DHT22;66074;50.764;6.090;2024-02-15T13:22:39;17.10;97.10
19803;DHT22;66074;50.764;6.090;2024-02-15T13:25:06;17.10;97.40
19803;DHT22;66074;50.764;6.090;2024-02-15T13:27:34;17.00;96.90
19803;DHT22;66074;50.764;6.090;2024-02-15T13:29:59;17.00;97.10
19803;DHT22;66074;50.764;6.090;2024-02-15T13:32:26;17.00;97.00
19803;DHT22;66074;50.764;6.090;2024-02-15T13:34:51;17.00;97.20
19803;DHT22;66074;50.764;6.090;2024-02-15T13:37:20;17.10;96.60
19803;DHT22;66074;50.764;6.090;2024-02-15T13:39:47;17.10;96.80
19803;DHT22;66074;50.764;6.090;2024-02-15T13:42:13;17.10;96.90
19803;DHT22;66074;50.764;6.090;2024-02-15T13:44:39;17.10;97.00
19803;DHT22;66074;50.764;6.090;2024-02-15T13:47:04;17.10;96.60
19803;DHT22;66074;50.764;6.090;2024-02-15T13:49:31;17.00;96.60
19803;DHT22;66074;50.764;6.090;2024-02-15T13:51:58;17.00;96.90
19803;DHT22;66074;50.764;6.090;2024-02-15T13:54:28;17.00;96.60
19803;DHT22;66074;50.764;6.090;2024-02-15T13:56:57;17.00;96.10
19803;DHT22;66074;50.764;6.090;2024-02-15T13:59:23;16.90;96.60
19803;DHT22;66074;50.764;6.090;2024-02-15T14:01:51;16.90;96.60
19803;DHT22;66074;50.764;6.090;2024-02-15T14:04:18;16.80;96.50
19803;DHT22;66074;50.764;6.090;2024-02-15T14:06:44;16.80;96.40
19803;DHT22;66074;50.764;6.090;2024-02-15T14:09:10;16.80;96.70
19803;DHT22;66074;50.764;6.090;2024-02-15T14:11:39;16.80;96.70
19803;DHT22;66074;50.764;6.090;2024-02-15T14:14:05;16.70;96.20
19803;DHT22;66074;50.764;6.090;2024-02-15T14:16:32;16.70;96.60
19803;DHT22;66074;50.764;6.090;2024-02-15T14:18:58;16.70;96.60
19803;DHT22;66074;50.764;6.090;2024-02-15T14:21:25;16.70;96.50
19803;DHT22;66074;50.764;6.090;2024-02-15T14:23:51;16.70;96.60
19803;DHT22;66074;50.764;6.090;2024-02-15T14:26:17;16.70;96.40
19803;DHT22;66074;50.764;6.090;2024-02-15T14:28:43;16.70;96.50
19803;DHT22;66074;50.764;6.090;2024-02-15T14:31:11;16.70;96.40
19803;DHT22;66074;50.764;6.090;2024-02-15T14:33:55;16.70;96.50
19803;DHT22;66074;50.764;6.090;2024-02-15T14:36:20;16.80;96.60
19803;DHT22;66074;50.764;6.090;2024-02-15T14:38:46;16.80;96.50
19803;DHT22;66074;50.764;6.090;2024-02-15T14:41:15;16.80;96.20
19803;DHT22;66074;50.764;6.090;2024-02-15T14:43:41;16.90;96.10
19803;DHT22;66074;50.764;6.090;2024-02-15T14:46:07;16.90;96.10
19803;DHT22;66074;50.764;6.090;2024-02-15T14:48:34;16.90;96.40
19803;DHT22;66074;50.764;6.090;2024-02-15T14:51:00;16.90;96.20
19803;DHT22;66074;50.764;6.090;2024-02-15T14:53:27;16.90;96.20
19803;DHT22;66074;50.764;6.090;2024-02-15T14:55:53;16.90;96.20
19803;DHT22;66074;50.764;6.090;2024-02-15T14:58:20;17.00;96.00
19803;DHT22;66074;50.764;6.090;2024-02-15T15:00:47;17.00;95.90
19803;DHT22;66074;50.764;6.090;2024-02-15T15:03:14;17.00;96.10
19803;DHT22;66074;50.764;6.090;2024-02-15T15:05:40;17.00;96.00
19803;DHT22;66074;50.764;6.090;2024-02-15T15:08:25;17.00;95.90
19803;DHT22;66074;50.764;6.090;2024-02-15T15:11:09;17.00;95.80
19803;DHT22;66074;50.764;6.090;2024-02-15T15:13:53;17.00;95.60
19803;DHT22;66074;50.764;6.090;2024-02-15T15:16:19;17.00;95.50
19803;DHT22;66074;50.764;6.090;2024-02-15T15:18:49;17.00;95.70
19803;DHT22;66074;50.764;6.090;2024-02-15T15:21:19;17.00;95.70
19803;DHT22;66074;50.764;6.090;2024-02-15T15:23:45;17.00;95.70
19803;DHT22;66074;50.764;6.090;2024-02-15T15:26:11;17.10;95.40
19803;DHT22;66074;50.764;6.090;2024-02-15T15:28:40;17.10;95.30
19803;DHT22;66074;50.764;6.090;2024-02-15T15:31:06;17.10;95.50
19803;DHT22;66074;50.764;6.090;2024-02-15T15:33:35;17.10;95.40
19803;DHT22;66074;50.764;6.090;2024-02-15T15:36:01;17.20;95.50
19803;DHT22;66074;50.764;6.090;2024-02-15T15:38:28;17.20;95.50
19803;DHT22;66074;50.764;6.090;2024-02-15T15:40:54;17.20;95.50
19803;DHT22;66074;50.764;6.090;2024-02-15T15:43:20;17.10;95.10
19803;DHT22;66074;50.764;6.090;2024-02-15T15:45:46;17.10;95.10
19803;DHT22;66074;50.764;6.090;2024-02-15T15:48:13;17.00;95.30
19803;DHT22;66074;50.764;6.090;2024-02-15T15:50:39;16.90;94.90
19803;DHT22;66074;50.764;6.090;2024-02-15T15:53:06;16.90;95.40
19803;DHT22;66074;50.764;6.090;2024-02-15T15:55:35;16.80;94.90